createdAt,value
2022-10-26T00:01:15.726Z,16.67
2022-10-26T00:03:44.134Z,16.64
2022-10-26T00:06:17.028Z,16.67
2022-10-26T00:08:44.625Z,16.66
2022-10-26T00:11:12.410Z,16.61
2022-10-26T00:13:40.753Z,16.70
2022-10-26T00:16:09.930Z,16.68
2022-10-26T00:18:36.812Z,16.60
2022-10-26T00:21:07.630Z,16.61
2022-10-26T00:23:34.615Z,16.54
2022-10-26T00:26:01.636Z,16.57
2022-10-26T00:28:28.628Z,16.52
2022-10-26T00:30:55.886Z,16.57
2022-10-26T00:33:22.741Z,16.49
2022-10-26T00:35:53.859Z,16.48
2022-10-26T00:38:21.000Z,16.43
2022-10-26T00:40:48.192Z,16.41
2022-10-26T00:43:36.131Z,16.38
2022-10-26T00:46:06.860Z,16.32
2022-10-26T00:48:42.088Z,16.28
2022-10-26T00:51:15.755Z,16.26
2022-10-26T00:53:43.270Z,16.31
2022-10-26T00:56:10.371Z,16.32
2022-10-26T00:58:38.830Z,16.35
2022-10-26T01:01:05.737Z,16.33
2022-10-26T01:03:34.685Z,16.34
2022-10-26T01:06:04.361Z,16.25
2022-10-26T01:08:31.818Z,16.20
2022-10-26T01:11:00.433Z,16.17
2022-10-26T01:13:31.077Z,16.04
2022-10-26T01:16:29.162Z,15.97
2022-10-26T01:19:23.481Z,15.89
2022-10-26T01:22:00.858Z,15.78
2022-10-26T01:24:36.535Z,15.82
2022-10-26T01:27:25.299Z,15.70
2022-10-26T01:30:10.463Z,15.67
2022-10-26T01:33:01.334Z,15.67
2022-10-26T01:35:37.255Z,15.68
2022-10-26T01:38:36.486Z,15.69
2022-10-26T01:41:28.289Z,15.65
2022-10-26T01:44:43.042Z,15.74
2022-10-26T01:47:13.636Z,15.69
2022-10-26T01:49:48.496Z,15.72
2022-10-26T01:52:15.465Z,15.73
2022-10-26T01:54:42.320Z,15.68
2022-10-26T01:57:12.148Z,15.70
2022-10-26T02:00:03.385Z,15.73
2022-10-26T02:03:04.548Z,15.68
2022-10-26T02:05:34.082Z,15.80
2022-10-26T02:08:28.890Z,15.83
2022-10-26T02:11:10.934Z,15.83
2022-10-26T02:14:18.473Z,15.83
2022-10-26T02:16:45.333Z,15.83
2022-10-26T02:19:15.056Z,15.86
2022-10-26T02:21:47.664Z,15.82
2022-10-26T02:24:16.901Z,15.82
2022-10-26T02:26:47.682Z,15.75
2022-10-26T02:29:19.433Z,15.71
2022-10-26T02:31:50.304Z,15.78
2022-10-26T02:34:22.753Z,15.76
2022-10-26T02:36:53.818Z,15.65
2022-10-26T02:39:22.050Z,15.56
2022-10-26T02:41:50.056Z,15.50
2022-10-26T02:44:23.875Z,15.57
2022-10-26T02:46:52.063Z,15.57
2022-10-26T02:49:19.605Z,15.58
2022-10-26T02:51:50.628Z,15.60
2022-10-26T02:55:01.023Z,15.62
2022-10-26T02:57:42.400Z,15.59
2022-10-26T03:00:11.891Z,15.58
2022-10-26T03:02:38.966Z,15.54
2022-10-26T03:05:22.927Z,15.58
2022-10-26T03:26:03.839Z,14.28
2022-10-26T03:28:31.440Z,14.39
2022-10-26T03:30:58.208Z,14.42
2022-10-26T03:33:27.096Z,14.51
2022-10-26T03:35:57.989Z,14.57
2022-10-26T03:38:25.085Z,14.58
2022-10-26T03:40:52.009Z,14.58
2022-10-26T03:43:19.007Z,14.56
2022-10-26T03:45:46.057Z,14.56
2022-10-26T03:48:13.285Z,14.57
2022-10-26T03:50:40.148Z,14.50
2022-10-26T03:53:06.956Z,14.41
2022-10-26T03:55:33.843Z,14.51
2022-10-26T03:58:00.622Z,14.58
2022-10-26T04:00:27.466Z,14.52
2022-10-26T04:02:59.304Z,14.52
2022-10-26T04:05:28.418Z,14.49
2022-10-26T04:08:00.390Z,14.44
2022-10-26T04:10:27.857Z,14.40
2022-10-26T04:12:55.558Z,14.35
2022-10-26T04:15:22.764Z,14.44
2022-10-26T04:17:55.991Z,14.37
2022-10-26T04:20:22.828Z,14.33
2022-10-26T04:22:59.289Z,14.38
2022-10-26T04:25:28.751Z,14.25
2022-10-26T04:27:59.649Z,14.31
2022-10-26T04:30:26.792Z,14.26
2022-10-26T04:32:53.774Z,14.24
2022-10-26T04:35:20.701Z,14.29
2022-10-26T04:37:47.717Z,14.30
2022-10-26T04:40:14.661Z,14.27
2022-10-26T04:42:46.842Z,14.29
2022-10-26T04:45:16.159Z,14.22
2022-10-26T04:47:43.306Z,14.18
2022-10-26T04:50:12.155Z,14.23
2022-10-26T04:52:38.957Z,14.13
2022-10-26T04:55:07.037Z,14.20
2022-10-26T04:57:34.801Z,14.18
2022-10-26T05:00:03.737Z,14.21
2022-10-26T05:02:30.810Z,14.26
2022-10-26T05:04:57.770Z,14.39
2022-10-26T05:07:24.659Z,14.46
2022-10-26T05:09:51.495Z,14.66
2022-10-26T05:12:18.345Z,14.71
2022-10-26T05:14:45.208Z,14.94
2022-10-26T05:17:12.030Z,14.97
2022-10-26T05:19:38.949Z,15.07
2022-10-26T05:22:05.825Z,15.11
2022-10-26T05:24:32.744Z,15.20
2022-10-26T05:26:59.626Z,15.25
2022-10-26T05:29:26.439Z,15.19
2022-10-26T05:31:53.333Z,15.29
2022-10-26T05:34:20.146Z,15.50
2022-10-26T05:36:46.980Z,15.70
2022-10-26T05:39:13.902Z,15.79
2022-10-26T05:41:40.733Z,15.70
2022-10-26T05:44:07.580Z,15.78
2022-10-26T05:46:34.428Z,15.81
2022-10-26T05:49:01.340Z,15.70
2022-10-26T05:51:28.157Z,15.77
2022-10-26T05:53:54.993Z,15.97
2022-10-26T05:56:35.379Z,16.01
2022-10-26T05:59:02.897Z,16.02
2022-10-26T06:01:50.210Z,16.12
2022-10-26T06:04:22.745Z,16.03
2022-10-26T06:06:54.690Z,16.06
2022-10-26T06:09:21.933Z,16.02
2022-10-26T06:14:17.164Z,15.95
2022-10-26T06:16:55.447Z,16.11
2022-10-26T06:19:28.046Z,16.34
2022-10-26T06:22:27.089Z,16.47
2022-10-26T06:25:20.062Z,16.42
2022-10-26T06:28:03.701Z,16.68
2022-10-26T06:30:30.592Z,16.79
2022-10-26T06:33:05.629Z,16.82
2022-10-26T06:35:55.306Z,17.09
2022-10-26T06:38:25.254Z,16.96
2022-10-26T06:40:55.548Z,17.06
2022-10-26T06:43:28.354Z,16.92
2022-10-26T06:46:07.678Z,16.80
2022-10-26T06:48:49.937Z,16.78
2022-10-26T06:51:18.265Z,16.90
2022-10-26T06:54:10.813Z,17.03
2022-10-26T06:56:37.921Z,16.75
2022-10-26T06:59:13.374Z,16.76
2022-10-26T07:01:40.445Z,16.74
2022-10-26T07:04:07.389Z,16.95
2022-10-26T07:06:36.833Z,16.85
2022-10-26T07:09:06.044Z,16.87
2022-10-26T07:11:32.873Z,16.85
2022-10-26T07:13:59.748Z,16.84
2022-10-26T07:16:28.003Z,17.16
2022-10-26T07:18:54.974Z,17.39
2022-10-26T07:21:21.864Z,17.22
2022-10-26T07:23:48.692Z,17.04
2022-10-26T07:26:15.574Z,17.15
2022-10-26T07:28:42.520Z,16.98
2022-10-26T07:31:09.393Z,17.06
2022-10-26T07:33:39.434Z,17.16
2022-10-26T07:36:11.022Z,17.29
2022-10-26T07:38:39.228Z,17.18
2022-10-26T07:41:06.619Z,19.49
2022-10-26T07:43:33.427Z,22.18
2022-10-26T07:46:00.272Z,24.10
2022-10-26T07:48:27.158Z,26.52
2022-10-26T07:50:54.080Z,28.18
2022-10-26T07:53:24.017Z,29.96
2022-10-26T07:55:58.807Z,29.71
2022-10-26T07:58:27.289Z,30.21
2022-10-26T08:00:54.234Z,31.08
2022-10-26T08:03:21.993Z,31.59
2022-10-26T08:05:51.448Z,29.65
2022-10-26T08:08:18.509Z,32.13
2022-10-26T08:10:46.297Z,31.48
2022-10-26T08:13:14.252Z,31.23
2022-10-26T08:15:41.451Z,31.24
2022-10-26T08:18:08.303Z,32.61
2022-10-26T08:20:35.162Z,31.76
2022-10-26T08:23:04.008Z,33.37
2022-10-26T08:25:30.893Z,32.10
2022-10-26T08:28:01.793Z,31.18
2022-10-26T08:30:29.972Z,31.70
2022-10-26T08:33:05.419Z,31.94
2022-10-26T08:35:33.057Z,29.87
2022-10-26T08:38:00.570Z,30.38
2022-10-26T08:40:31.657Z,29.86
2022-10-26T08:43:16.948Z,27.53
2022-10-26T08:45:50.859Z,27.50
2022-10-26T08:48:22.415Z,26.05
2022-10-26T08:50:54.644Z,26.58
2022-10-26T08:53:44.174Z,28.09
2022-10-26T08:56:26.173Z,28.32
2022-10-26T08:58:59.040Z,29.63
2022-10-26T09:01:26.006Z,29.19
2022-10-26T09:03:52.966Z,27.47
2022-10-26T09:06:35.137Z,26.04
2022-10-26T09:09:21.689Z,28.89
2022-10-26T09:12:09.610Z,30.05
2022-10-26T09:15:00.942Z,32.84
2022-10-26T09:17:38.437Z,31.17
2022-10-26T09:20:26.961Z,30.10
2022-10-26T09:23:14.781Z,28.89
2022-10-26T09:25:42.162Z,30.49
2022-10-26T09:28:17.903Z,31.98
2022-10-26T09:30:48.683Z,30.40
2022-10-26T09:33:26.600Z,30.36
2022-10-26T09:36:01.370Z,29.78
2022-10-26T09:38:53.157Z,30.79
2022-10-26T09:41:31.982Z,31.16
2022-10-26T09:44:18.605Z,34.84
2022-10-26T09:47:23.681Z,34.61
2022-10-26T09:49:58.304Z,35.48
2022-10-26T09:52:25.267Z,38.24
2022-10-26T09:54:52.088Z,37.67
2022-10-26T09:57:20.449Z,40.88
2022-10-26T09:59:48.180Z,38.84
2022-10-26T10:02:40.132Z,39.00
2022-10-26T10:05:50.208Z,39.38
2022-10-26T10:08:19.700Z,42.87
2022-10-26T10:11:14.351Z,40.20
2022-10-26T10:13:43.510Z,36.34
2022-10-26T10:16:23.988Z,32.68
2022-10-26T10:18:56.316Z,30.24
2022-10-26T10:21:44.519Z,27.77
2022-10-26T10:24:41.967Z,26.58
2022-10-26T10:27:17.598Z,24.76
2022-10-26T10:29:47.620Z,24.24
2022-10-26T10:32:22.364Z,22.60
2022-10-26T10:34:54.454Z,22.26
2022-10-26T10:37:30.900Z,21.90
2022-10-26T10:40:02.575Z,22.47
2022-10-26T10:42:41.101Z,22.65
2022-10-26T10:45:20.747Z,22.94
2022-10-26T10:48:20.739Z,23.32
2022-10-26T10:51:01.664Z,25.13
2022-10-26T10:53:37.422Z,23.28
2022-10-26T10:56:11.637Z,22.59
2022-10-26T10:58:41.481Z,22.09
2022-10-26T11:01:14.447Z,21.96
2022-10-26T11:04:16.985Z,22.31
2022-10-26T11:06:45.695Z,22.02
2022-10-26T11:09:17.215Z,21.68
2022-10-26T11:11:49.993Z,22.66
2022-10-26T11:14:35.516Z,26.36
2022-10-26T11:17:14.189Z,28.33
2022-10-26T11:19:54.481Z,27.45
2022-10-26T11:22:26.772Z,26.70
2022-10-26T11:24:59.721Z,28.26
2022-10-26T11:27:39.709Z,30.03
2022-10-26T11:30:15.081Z,32.25
2022-10-26T11:32:47.707Z,31.49
2022-10-26T11:35:19.719Z,30.89
2022-10-26T11:38:01.826Z,30.75
2022-10-26T11:40:45.794Z,30.86
2022-10-26T11:43:41.008Z,31.60
2022-10-26T11:46:19.115Z,31.77
2022-10-26T11:49:01.416Z,30.24
2022-10-26T11:51:50.917Z,28.44
2022-10-26T11:54:45.818Z,27.07
2022-10-26T11:57:13.002Z,26.30
2022-10-26T11:59:46.614Z,25.28
2022-10-26T12:02:32.593Z,24.06
2022-10-26T12:05:20.458Z,23.63
2022-10-26T12:07:55.856Z,23.09
2022-10-26T12:10:32.460Z,22.64
2022-10-26T12:12:59.232Z,21.94
2022-10-26T12:16:03.147Z,21.79
2022-10-26T12:18:55.541Z,21.62
2022-10-26T12:21:27.635Z,20.97
2022-10-26T12:24:30.203Z,20.99
2022-10-26T12:27:04.144Z,21.06
2022-10-26T12:29:36.993Z,20.52
2022-10-26T12:32:25.090Z,20.61
2022-10-26T12:34:51.875Z,20.72
2022-10-26T12:37:51.014Z,20.84
2022-10-26T12:40:33.234Z,20.92
2022-10-26T12:43:18.237Z,20.77
2022-10-26T12:45:47.025Z,20.34
2022-10-26T12:48:42.402Z,20.53
2022-10-26T12:51:27.109Z,20.47
2022-10-26T12:53:59.653Z,20.42
2022-10-26T12:56:42.565Z,20.52
2022-10-26T12:59:17.229Z,20.55
2022-10-26T13:02:12.090Z,20.63
2022-10-26T13:04:57.287Z,20.89
2022-10-26T13:07:26.504Z,20.85
2022-10-26T13:10:11.541Z,20.72
2022-10-26T13:12:56.475Z,20.51
2022-10-26T13:15:31.576Z,20.72
2022-10-26T13:18:02.625Z,20.87
2022-10-26T13:20:31.172Z,20.94
2022-10-26T13:22:58.805Z,21.10
2022-10-26T13:25:31.222Z,20.95
2022-10-26T13:28:31.740Z,19.98
2022-10-26T13:30:58.570Z,19.67
2022-10-26T13:33:41.002Z,19.34
2022-10-26T13:36:15.543Z,19.32
2022-10-26T13:38:43.094Z,19.20
2022-10-26T13:41:20.628Z,19.00
2022-10-26T13:43:48.649Z,18.80
2022-10-26T13:46:27.716Z,18.70
2022-10-26T13:49:01.461Z,18.56
2022-10-26T13:51:43.249Z,18.36
2022-10-26T13:54:36.945Z,18.10
2022-10-26T13:57:15.675Z,18.04
2022-10-26T13:59:45.715Z,17.95
2022-10-26T14:02:23.806Z,17.82
2022-10-26T14:05:00.324Z,17.69
2022-10-26T14:07:37.833Z,17.69
2022-10-26T14:10:05.172Z,17.63
2022-10-26T14:12:32.950Z,17.49
2022-10-26T14:15:07.573Z,17.35
2022-10-26T14:17:34.929Z,17.29
2022-10-26T14:20:04.212Z,17.29
2022-10-26T14:22:31.093Z,17.22
2022-10-26T14:24:59.890Z,17.23
2022-10-26T14:27:32.582Z,17.15
2022-10-26T14:30:21.707Z,17.11
2022-10-26T14:32:48.605Z,17.05
2022-10-26T14:35:16.209Z,17.06
2022-10-26T14:37:50.054Z,16.94
2022-10-26T14:40:20.820Z,16.97
2022-10-26T14:42:51.648Z,16.91
2022-10-26T14:45:55.112Z,16.93
2022-10-26T14:48:31.511Z,16.78
2022-10-26T14:51:16.338Z,16.78
2022-10-26T14:53:49.926Z,16.69
2022-10-26T14:56:46.470Z,16.61
2022-10-26T14:59:22.438Z,16.53
2022-10-26T15:01:50.749Z,16.48
2022-10-26T15:04:32.787Z,16.47
2022-10-26T15:07:07.873Z,16.44
2022-10-26T15:09:51.758Z,16.39
2022-10-26T15:27:36.945Z,15.67
2022-10-26T15:30:20.039Z,15.78
2022-10-26T15:32:47.377Z,15.89
2022-10-26T15:35:19.440Z,15.94
2022-10-26T15:37:47.363Z,15.97
2022-10-26T15:40:15.425Z,16.08
2022-10-26T15:42:45.407Z,16.06
2022-10-26T15:45:27.151Z,16.10
2022-10-26T15:47:57.718Z,16.06
2022-10-26T15:50:27.677Z,16.07
2022-10-26T15:53:01.613Z,16.07
2022-10-26T15:55:30.426Z,16.08
2022-10-26T15:57:57.289Z,16.06
2022-10-26T16:00:24.201Z,16.03
2022-10-26T16:02:51.020Z,16.08
2022-10-26T16:05:18.077Z,16.07
2022-10-26T16:07:47.920Z,16.05
2022-10-26T16:10:23.738Z,15.98
2022-10-26T16:12:51.249Z,16.00
2022-10-26T16:15:20.698Z,16.01
2022-10-26T16:17:49.156Z,16.00
2022-10-26T16:20:23.010Z,15.98
2022-10-26T16:22:52.471Z,15.99
2022-10-26T16:25:24.997Z,16.07
2022-10-26T16:27:54.334Z,16.03
2022-10-26T16:30:25.803Z,16.06
2022-10-26T16:32:54.061Z,16.08
2022-10-26T16:35:20.942Z,16.11
2022-10-26T16:37:47.929Z,16.12
2022-10-26T16:40:14.853Z,16.08
2022-10-26T16:42:44.023Z,16.06
2022-10-26T16:45:12.572Z,16.05
2022-10-26T16:47:40.293Z,15.99
2022-10-26T16:50:11.941Z,15.87
2022-10-26T16:52:39.642Z,15.91
2022-10-26T16:55:08.280Z,15.82
2022-10-26T16:57:36.549Z,15.77
2022-10-26T17:00:06.022Z,15.69
2022-10-26T17:02:33.179Z,15.61
2022-10-26T17:05:02.851Z,15.60
2022-10-26T17:07:32.897Z,15.55
2022-10-26T17:09:59.847Z,15.54
2022-10-26T17:15:00.700Z,15.49
2022-10-26T17:17:27.665Z,15.51
2022-10-26T17:19:54.601Z,15.47
2022-10-26T17:22:21.456Z,15.53
2022-10-26T17:24:48.304Z,15.53
2022-10-26T17:27:17.014Z,15.55
2022-10-26T17:29:43.874Z,15.41
2022-10-26T17:32:10.972Z,15.42
2022-10-26T17:34:37.897Z,15.32
2022-10-26T17:37:04.749Z,15.29
2022-10-26T17:39:31.566Z,15.33
2022-10-26T17:41:58.429Z,15.32
2022-10-26T17:44:25.470Z,15.34
2022-10-26T17:46:52.369Z,15.41
2022-10-26T17:49:22.267Z,15.37
2022-10-26T17:51:50.449Z,15.35
2022-10-26T17:56:49.024Z,15.34
2022-10-26T17:59:15.872Z,15.31
2022-10-26T18:01:43.526Z,15.26
2022-10-26T18:04:10.702Z,15.20
2022-10-26T18:06:37.574Z,15.18
2022-10-26T18:09:04.652Z,15.23
2022-10-26T18:14:03.570Z,15.12
2022-10-26T18:16:31.385Z,15.12
2022-10-26T18:19:04.487Z,15.16
2022-10-26T18:21:37.737Z,15.18
2022-10-26T18:24:05.913Z,15.17
2022-10-26T18:26:33.228Z,15.15
2022-10-26T18:29:01.990Z,15.07
2022-10-26T18:31:31.397Z,15.04
2022-10-26T18:34:03.291Z,14.99
2022-10-26T18:36:30.350Z,15.00
2022-10-26T18:38:57.878Z,14.90
2022-10-26T18:41:26.333Z,14.88
2022-10-26T18:43:56.634Z,14.92
2022-10-26T18:46:39.227Z,14.94
2022-10-26T18:49:06.408Z,14.91
2022-10-26T18:51:34.870Z,14.90
2022-10-26T18:54:02.252Z,14.86
2022-10-26T18:56:29.547Z,14.89
2022-10-26T18:58:58.834Z,14.85
2022-10-26T19:01:29.075Z,14.79
2022-10-26T19:03:58.728Z,14.74
2022-10-26T19:06:28.467Z,14.66
2022-10-26T19:08:56.184Z,14.67
2022-10-26T19:11:25.220Z,14.65
2022-10-26T19:13:55.163Z,14.52
2022-10-26T19:16:44.510Z,14.54
2022-10-26T19:19:11.692Z,14.44
2022-10-26T19:21:38.638Z,14.43
2022-10-26T19:24:12.079Z,14.32
2022-10-26T19:26:42.586Z,14.36
2022-10-26T19:29:16.015Z,14.27
2022-10-26T19:31:47.714Z,14.23
2022-10-26T19:34:15.944Z,14.25
2022-10-26T19:36:45.159Z,14.21
2022-10-26T19:39:14.187Z,14.09
2022-10-26T19:41:41.068Z,14.04
2022-10-26T19:44:08.004Z,14.06
2022-10-26T19:46:34.966Z,14.03
2022-10-26T19:49:02.509Z,14.06
2022-10-26T19:51:30.969Z,14.04
2022-10-26T19:54:03.173Z,14.08
2022-10-26T19:56:32.692Z,14.06
2022-10-26T19:58:59.646Z,14.09
2022-10-26T20:01:26.854Z,14.13
2022-10-26T20:03:53.927Z,14.08
2022-10-26T20:06:20.841Z,14.12
2022-10-26T20:08:49.188Z,14.15
2022-10-26T20:11:18.079Z,14.20
2022-10-26T20:13:46.386Z,14.16
2022-10-26T20:16:15.081Z,14.17
2022-10-26T20:18:45.753Z,14.20
2022-10-26T20:21:16.481Z,14.19
2022-10-26T20:23:44.274Z,14.21
2022-10-26T20:26:18.373Z,14.28
2022-10-26T20:28:48.196Z,14.33
2022-10-26T20:31:15.141Z,14.27
2022-10-26T20:33:42.485Z,14.33
2022-10-26T20:36:09.677Z,14.34
2022-10-26T20:38:36.887Z,14.30
2022-10-26T20:41:07.690Z,14.27
2022-10-26T20:43:39.441Z,14.30
2022-10-26T20:46:11.431Z,14.32
2022-10-26T20:48:38.901Z,14.32
2022-10-26T20:53:59.611Z,14.44
2022-10-26T20:56:26.970Z,14.41
2022-10-26T20:58:56.124Z,14.41
2022-10-26T21:01:27.799Z,14.50
2022-10-26T21:03:56.792Z,14.62
2022-10-26T21:06:24.987Z,14.68
2022-10-26T21:08:53.725Z,14.63
2022-10-26T21:11:21.925Z,14.69
2022-10-26T21:13:49.839Z,14.77
2022-10-26T21:16:17.953Z,14.77
2022-10-26T21:18:45.314Z,14.81
2022-10-26T21:21:12.445Z,14.84
2022-10-26T21:23:41.083Z,14.90
2022-10-26T21:26:09.110Z,14.85
2022-10-26T21:28:45.704Z,14.89
2022-10-26T21:31:15.129Z,14.90
2022-10-26T21:33:42.197Z,14.71
2022-10-26T21:36:14.177Z,14.79
2022-10-26T21:38:43.308Z,14.67
2022-10-26T21:41:18.071Z,14.53
2022-10-26T21:43:48.248Z,14.33
2022-10-26T21:46:16.854Z,14.27
2022-10-26T21:48:43.941Z,14.10
2022-10-26T21:51:17.060Z,14.02
2022-10-26T21:53:44.652Z,14.08
2022-10-26T21:56:14.492Z,13.88
2022-10-26T21:58:41.689Z,13.73
2022-10-26T22:01:11.338Z,13.66
2022-10-26T22:03:39.409Z,13.50
2022-10-26T22:06:08.493Z,13.45
2022-10-26T22:08:36.314Z,13.36
2022-10-26T22:11:15.574Z,13.31
2022-10-26T22:13:44.160Z,13.24
2022-10-26T22:16:13.617Z,13.16
2022-10-26T22:18:43.209Z,13.10
2022-10-26T22:21:11.109Z,13.12
2022-10-26T22:23:40.438Z,13.12
2022-10-26T22:26:18.870Z,13.04
2022-10-26T22:28:47.536Z,13.06
2022-10-26T22:31:17.726Z,13.09
2022-10-26T22:33:45.300Z,13.07
2022-10-26T22:36:15.275Z,13.03
2022-10-26T22:38:42.548Z,13.01
2022-10-26T22:41:10.417Z,13.03
2022-10-26T22:43:37.358Z,13.03
2022-10-26T22:46:05.905Z,12.91
2022-10-26T22:48:34.395Z,12.97
2022-10-26T22:51:06.494Z,12.89
2022-10-26T22:53:33.434Z,12.92
2022-10-26T22:58:45.496Z,12.88
2022-10-26T23:01:21.504Z,12.92
2022-10-26T23:03:48.954Z,12.89
2022-10-26T23:06:18.917Z,12.87
2022-10-26T23:08:49.645Z,12.84
2022-10-26T23:11:19.061Z,12.83
2022-10-26T23:13:46.041Z,12.79
2022-10-26T23:16:17.782Z,12.79
2022-10-26T23:18:45.144Z,12.79
2022-10-26T23:21:14.454Z,12.82
2022-10-26T23:23:48.133Z,12.74
2022-10-26T23:26:18.103Z,12.75
2022-10-26T23:28:47.950Z,12.71
2022-10-26T23:31:20.286Z,12.62
2022-10-26T23:33:51.561Z,12.66
2022-10-26T23:36:19.076Z,12.62
2022-10-26T23:38:46.747Z,12.62
2022-10-26T23:41:13.791Z,12.57
2022-10-26T23:43:40.850Z,12.53
2022-10-26T23:46:07.923Z,12.49
2022-10-26T23:48:34.754Z,12.49
2022-10-26T23:51:01.607Z,12.49
2022-10-26T23:53:28.595Z,12.47
2022-10-26T23:55:55.578Z,12.46
2022-10-26T23:58:22.532Z,12.47
